Time;durP1;ratioP1;P1;durP2;ratioP2;P2;SDS_P1;SDS_P2;PMS_P1;PMS_P2;Temp;Humidity;BMP_temperature;BMP_pressure;BME280_temperature;BME280_humidity;BME280_pressure;Samples;Min_cycle;Max_cycle;Signal;HPM_P1;HPM_P2
2023/08/28 00:01:31;;;;;;;2.20;1.20;;;;;;;18.23;84.19;98003.88;435383;1254;99243;-44
2023/08/28 00:11:37;;;;;;;1.00;0.70;;;;;;;18.16;84.33;98002.33;435192;1254;107848;-44
2023/08/28 00:31:49;;;;;;;2.30;0.40;;;;;;;18.14;84.42;97995.95;434939;1251;406661;-43
2023/08/28 00:41:56;;;;;;;5.00;0.70;;;;;;;18.02;84.26;98006.52;435292;1254;108350;-43
2023/08/28 00:52:03;;;;;;;1.90;0.60;;;;;;;17.95;84.60;98036.48;435250;1251;99110;-43
2023/08/28 01:32:27;;;;;;;1.70;1.20;;;;;;;17.88;84.68;98047.35;435313;1253;107288;-43
2023/08/28 01:42:35;;;;;;;3.00;2.00;;;;;;;17.87;84.92;98067.86;435316;1250;99248;-43
2023/08/28 01:52:42;;;;;;;1.40;1.20;;;;;;;17.89;84.93;98057.02;435079;1254;108669;-42
2023/08/28 02:33:06;;;;;;;3.30;1.40;;;;;;;17.78;84.83;98060.14;435280;1254;99241;-42
2023/08/28 02:43:14;;;;;;;5.10;2.10;;;;;;;17.73;85.03;98064.09;435212;1250;107464;-43
2023/08/28 02:53:21;;;;;;;3.30;1.60;;;;;;;17.79;85.17;98089.05;435275;1250;98863;-43
2023/08/28 03:03:27;;;;;;;2.00;1.30;;;;;;;17.79;85.06;98036.55;435232;1253;111292;-41
2023/08/28 03:13:35;;;;;;;2.30;1.80;;;;;;;17.79;85.02;98069.95;435212;1256;108435;-41
2023/08/28 03:23:42;;;;;;;5.10;2.70;;;;;;;17.79;85.44;98068.63;435507;1254;99019;-41
2023/08/28 03:54:01;;;;;;;5.90;2.40;;;;;;;17.79;85.43;98086.91;435296;1254;110905;-43
2023/08/28 04:04:07;;;;;;;4.50;2.20;;;;;;;17.69;85.31;98102.02;435252;1253;107158;-43
2023/08/28 04:14:13;;;;;;;6.80;2.90;;;;;;;17.60;85.58;98132.33;435295;1265;99236;-42
2023/08/28 04:24:20;;;;;;;3.20;2.30;;;;;;;17.64;85.74;98144.45;435332;1253;107321;-43
2023/08/28 04:34:30;;;;;;;2.50;2.10;;;;;;;17.71;86.00;98135.73;435350;1250;97983;-42
2023/08/28 04:44:35;;;;;;;5.40;2.60;;;;;;;17.80;86.06;98144.94;435312;1253;110864;-42
2023/08/28 04:54:43;;;;;;;2.90;2.30;;;;;;;17.87;86.07;98164.25;435192;1255;111569;-41
2023/08/28 05:04:48;;;;;;;4.40;3.50;;;;;;;17.93;86.23;98154.05;435269;1254;99212;-43
2023/08/28 05:14:55;;;;;;;5.20;4.50;;;;;;;18.05;85.97;98135.02;435272;1255;108582;-42
2023/08/28 05:25:02;;;;;;;7.60;4.50;;;;;;;18.17;86.11;98136.27;435260;1254;99858;-42
2023/08/28 05:35:08;;;;;;;5.90;4.30;;;;;;;18.31;86.01;98131.81;435388;1250;111471;-42
2023/08/28 05:45:15;;;;;;;6.60;5.20;;;;;;;18.31;85.99;98120.10;435283;1254;107587;-42
2023/08/28 05:55:22;;;;;;;6.20;5.60;;;;;;;18.38;85.97;98112.98;435186;1253;99852;-42
2023/08/28 06:05:29;;;;;;;7.80;6.90;;;;;;;18.47;85.78;98119.37;435303;1250;106501;-43
2023/08/28 06:15:36;;;;;;;6.50;5.20;;;;;;;18.41;85.75;98130.74;435224;1254;99225;-42
2023/08/28 06:25:43;;;;;;;5.30;4.80;;;;;;;18.49;85.90;98128.10;435308;1255;112449;-42
2023/08/28 06:35:50;;;;;;;5.80;4.90;;;;;;;18.62;85.50;98138.27;435224;1250;108174;-42
2023/08/28 06:45:58;;;;;;;4.20;3.90;;;;;;;18.75;85.45;98144.09;435230;1255;99218;-42
2023/08/28 06:56:06;;;;;;;6.90;4.40;;;;;;;18.84;85.12;98131.98;435383;1254;107569;-41
2023/08/28 07:16:18;;;;;;;6.40;3.90;;;;;;;18.95;84.58;98125.46;435239;1256;111848;-41
2023/08/28 07:26:25;;;;;;;7.60;4.90;;;;;;;19.14;84.54;98113.41;435359;1264;106931;-42
2023/08/28 07:36:33;;;;;;;5.70;4.90;;;;;;;19.34;84.18;98109.05;435421;1250;98584;-42
2023/08/28 07:46:40;;;;;;;6.20;5.30;;;;;;;19.52;84.16;98103.77;435238;1253;108140;-41
2023/08/28 08:06:53;;;;;;;6.50;5.60;;;;;;;19.64;82.77;98077.29;435323;1253;111522;-42
2023/08/28 08:37:12;;;;;;;8.30;5.00;;;;;;;19.60;81.79;98112.02;435328;1256;107066;-43
2023/08/28 08:47:19;;;;;;;6.70;6.10;;;;;;;19.45;81.62;98134.52;435260;1257;99100;-41
2023/08/28 08:57:27;;;;;;;10.00;5.60;;;;;;;19.22;81.57;98148.76;435184;1255;110837;-42
2023/08/28 09:07:36;;;;;;;9.40;5.50;;;;;;;19.06;81.67;98132.98;435212;1263;108024;-42
2023/08/28 09:17:41;;;;;;;6.80;6.10;;;;;;;19.06;81.85;98139.20;435347;1257;97997;-43
2023/08/28 09:37:56;;;;;;;12.60;10.10;;;;;;;18.66;82.05;98132.97;435136;1252;97932;-44
2023/08/28 09:48:06;;;;;;;9.20;8.20;;;;;;;18.65;82.36;98114.84;435220;1256;111743;-42
2023/08/28 09:58:11;;;;;;;12.40;7.30;;;;;;;18.64;82.45;98091.51;435178;1254;108765;-42
2023/08/28 10:18:25;;;;;;;4.90;4.50;;;;;;;18.64;83.05;98099.81;435231;1255;108200;-42
2023/08/28 10:28:33;;;;;;;4.40;4.10;;;;;;;18.64;82.56;98100.08;435318;1250;99365;-43
2023/08/28 10:38:40;;;;;;;3.60;3.30;;;;;;;18.71;82.32;98098.27;435395;1253;111684;-42
2023/08/28 10:49:04;;;;;;;4.60;3.90;;;;;;;19.05;81.93;98086.48;435349;1256;109509;-43
2023/08/28 10:59:27;;;;;;;4.30;3.90;;;;;;;19.29;81.60;98090.66;435291;1263;99247;-43
2023/08/28 11:09:33;;;;;;;5.70;4.50;;;;;;;19.54;81.14;98090.63;435345;1254;108258;-42
2023/08/28 11:30:15;;;;;;;5.20;4.00;;;;;;;19.78;80.20;98082.45;435446;1251;111091;-42
2023/08/28 12:00:33;;;;;;;6.80;5.30;;;;;;;20.04;78.70;98051.64;435334;1263;108562;-42
2023/08/28 12:10:41;;;;;;;9.60;4.90;;;;;;;19.87;78.06;98051.19;435360;1255;99253;-42
2023/08/28 12:20:48;;;;;;;7.30;4.50;;;;;;;19.82;78.30;98046.00;435134;1263;112469;-41
2023/08/28 12:30:52;;;;;;;6.90;5.80;;;;;;;19.82;77.96;98039.06;434974;1251;317834;-42
2023/08/28 12:41:00;;;;;;;6.10;5.10;;;;;;;19.60;77.82;98017.63;435564;1254;98723;-42
2023/08/28 12:51:07;;;;;;;5.60;4.80;;;;;;;19.58;77.95;98012.89;435325;1263;107505;-43
2023/08/28 13:01:15;;;;;;;6.00;5.40;;;;;;;19.64;78.07;97993.13;435353;1251;99221;-42
2023/08/28 13:31:34;;;;;;;5.60;5.10;;;;;;;19.80;77.43;97996.50;435132;1264;99268;-42
2023/08/28 13:41:41;;;;;;;4.70;3.90;;;;;;;19.67;76.59;97997.09;435164;1263;107402;-43
2023/08/28 14:01:55;;;;;;;9.90;5.60;;;;;;;19.62;76.89;98008.35;435264;1251;112068;-41
2023/08/28 14:12:03;;;;;;;5.90;3.90;;;;;;;19.58;76.45;98003.17;435246;1251;109444;-43
2023/08/28 14:22:10;;;;;;;6.30;3.90;;;;;;;19.51;76.32;97986.39;435304;1254;98252;-43
2023/08/28 14:32:17;;;;;;;5.80;3.40;;;;;;;19.64;76.45;97984.55;435270;1251;107894;-42
2023/08/28 14:52:28;;;;;;;9.40;5.30;;;;;;;19.32;76.26;97974.85;435406;1251;111108;-44
2023/08/28 15:02:35;;;;;;;5.50;4.70;;;;;;;19.25;76.54;97960.48;435369;1263;109280;-42
2023/08/28 15:12:42;;;;;;;7.10;4.20;;;;;;;19.22;77.15;97955.63;435311;1250;99314;-42
2023/08/28 15:22:49;;;;;;;5.60;4.90;;;;;;;19.26;77.43;97956.11;435238;1250;108569;-43
2023/08/28 15:32:57;;;;;;;6.60;5.10;;;;;;;19.17;77.63;97943.34;435294;1251;98089;-43
2023/08/28 15:43:05;;;;;;;6.40;4.50;;;;;;;19.08;77.80;97929.30;435307;1253;111301;-42
2023/08/28 16:23:28;;;;;;;5.00;4.20;;;;;;;18.87;78.49;97928.02;435277;1264;98911;-42
2023/08/28 16:33:35;;;;;;;5.10;4.60;;;;;;;18.80;78.82;97936.00;435318;1250;111636;-43
2023/08/28 16:43:41;;;;;;;5.10;3.80;;;;;;;18.79;79.13;97942.45;435261;1254;108644;-43
2023/08/28 16:53:48;;;;;;;6.00;4.40;;;;;;;18.78;79.15;97933.78;435295;1250;99244;-42
2023/08/28 17:03:57;;;;;;;6.00;4.90;;;;;;;18.71;79.38;97929.91;435166;1254;107351;-43
2023/08/28 17:44:21;;;;;;;8.50;4.70;;;;;;;18.39;80.10;97914.66;435398;1254;99208;-42
2023/08/28 17:54:28;;;;;;;9.90;6.10;;;;;;;18.37;80.31;97918.30;435297;1253;107749;-43
2023/08/28 18:04:34;;;;;;;6.20;5.10;;;;;;;18.33;80.46;97917.46;435257;1255;99253;-42
2023/08/28 18:14:40;;;;;;;6.30;5.60;;;;;;;18.22;80.84;97909.05;435257;1254;112178;-42
2023/08/28 18:24:48;;;;;;;8.70;6.10;;;;;;;18.22;81.16;97909.17;435286;1254;107687;-43
2023/08/28 18:34:56;;;;;;;9.10;6.30;;;;;;;18.09;81.57;97891.48;435359;1253;98522;-43
2023/08/28 18:55:04;;;;;;;9.80;7.20;;;;;;;18.00;82.32;97881.01;435365;1254;99217;-42
2023/08/28 19:15:27;;;;;;;9.50;6.80;;;;;;;17.91;83.32;97843.45;435287;1254;107363;-43
2023/08/28 19:25:35;;;;;;;7.80;6.10;;;;;;;17.90;83.47;97818.02;435210;1253;99858;-42
2023/08/28 19:35:42;;;;;;;6.30;5.20;;;;;;;17.87;84.31;97797.69;435077;1254;107950;-43
2023/08/28 19:45:48;;;;;;;10.10;6.30;;;;;;;17.84;84.49;97782.50;435271;1253;99311;-43
2023/08/28 19:55:55;;;;;;;10.70;6.10;;;;;;;17.80;84.81;97768.91;435168;1254;110918;-42
2023/08/28 20:26:14;;;;;;;13.10;7.80;;;;;;;17.51;86.38;97734.92;435107;1254;108651;-43
2023/08/28 20:56:33;;;;;;;11.80;10.20;;;;;;;17.22;87.79;97700.83;435364;1251;108260;-42
2023/08/28 21:06:38;;;;;;;10.30;9.10;;;;;;;17.27;87.99;97682.48;435471;1253;98596;-43
2023/08/28 21:16:47;;;;;;;15.00;11.00;;;;;;;17.22;88.49;97661.66;435200;1252;111207;-43
2023/08/28 21:26:53;;;;;;;14.00;9.90;;;;;;;17.20;88.98;97650.52;435233;1250;97993;-42
2023/08/28 22:37:35;;;;;;;14.60;11.70;;;;;;;17.30;91.80;97614.40;435350;1251;107719;-43
2023/08/28 22:47:40;;;;;;;16.40;12.60;;;;;;;17.32;91.68;97590.85;435383;1250;98188;-42
2023/08/28 22:57:49;;;;;;;14.20;12.70;;;;;;;17.34;92.33;97578.14;435319;1250;108502;-41
2023/08/28 23:07:57;;;;;;;15.70;12.60;;;;;;;17.42;92.31;97584.21;435143;1255;99234;-42
2023/08/28 23:28:10;;;;;;;15.40;13.60;;;;;;;17.54;92.34;97598.52;435382;1254;108814;-42
2023/08/28 23:38:17;;;;;;;17.70;14.20;;;;;;;17.63;92.22;97602.60;435153;1254;98828;-43
2023/08/28 23:48:23;;;;;;;17.40;14.10;;;;;;;17.63;92.16;97588.27;435359;1253;109493;-42
2023/08/28 23:58:31;;;;;;;16.30;13.10;;;;;;;17.59;92.23;97573.27;435347;1254;99321;-42
